sensor_id;sensor_type;location;lat;lon;timestamp;P1;durP1;ratioP1;P2;durP2;ratioP2
7169;SDS011;3626;42.656;23.312;2024-03-23T00:52:28;20.20;;;8.90;;
7169;SDS011;3626;42.656;23.312;2024-03-23T00:52:47;20.80;;;8.27;;
7169;SDS011;3626;42.656;23.312;2024-03-23T00:53:12;21.83;;;8.43;;
7169;SDS011;3626;42.656;23.312;2024-03-23T00:53:32;25.55;;;8.70;;
7169;SDS011;3626;42.656;23.312;2024-03-23T00:53:45;24.36;;;9.00;;
7169;SDS011;3626;42.656;23.312;2024-03-23T00:53:51;23.90;;;8.93;;
7169;SDS011;3626;42.656;23.312;2024-03-23T00:53:57;24.90;;;8.93;;
7169;SDS011;3626;42.656;23.312;2024-03-23T00:54:03;25.75;;;9.18;;
7169;SDS011;3626;42.656;23.312;2024-03-23T00:54:08;25.38;;;9.15;;
7169;SDS011;3626;42.656;23.312;2024-03-23T00:54:14;25.03;;;9.17;;
7169;SDS011;3626;42.656;23.312;2024-03-23T00:54:20;23.42;;;9.25;;
7169;SDS011;3626;42.656;23.312;2024-03-23T00:54:25;22.63;;;9.10;;
7169;SDS011;3626;42.656;23.312;2024-03-23T00:54:31;20.35;;;8.73;;
7169;SDS011;3626;42.656;23.312;2024-03-23T00:54:37;19.98;;;8.60;;
7169;SDS011;3626;42.656;23.312;2024-03-23T00:54:42;20.30;;;8.48;;
7169;SDS011;3626;42.656;23.312;2024-03-23T00:54:48;20.80;;;8.60;;
7169;SDS011;3626;42.656;23.312;2024-03-23T00:54:53;19.50;;;8.50;;
7169;SDS011;3626;42.656;23.312;2024-03-23T00:55:00;17.73;;;8.10;;
7169;SDS011;3626;42.656;23.312;2024-03-23T00:55:06;17.27;;;8.02;;
7169;SDS011;3626;42.656;23.312;2024-03-23T00:55:12;17.10;;;8.12;;
7169;SDS011;3626;42.656;23.312;2024-03-23T00:55:19;17.50;;;8.00;;
7169;SDS011;3626;42.656;23.312;2024-03-23T00:55:24;18.05;;;8.02;;
7169;SDS011;3626;42.656;23.312;2024-03-23T00:55:30;18.45;;;8.20;;
7169;SDS011;3626;42.656;23.312;2024-03-23T00:55:36;18.07;;;8.17;;
7169;SDS011;3626;42.656;23.312;2024-03-23T00:55:41;18.35;;;8.15;;
7169;SDS011;3626;42.656;23.312;2024-03-23T00:55:47;18.08;;;8.13;;
7169;SDS011;3626;42.656;23.312;2024-03-23T00:55:53;18.13;;;8.10;;
7169;SDS011;3626;42.656;23.312;2024-03-23T00:55:59;18.37;;;8.20;;
7169;SDS011;3626;42.656;23.312;2024-03-23T00:56:05;18.30;;;8.20;;
7169;SDS011;3626;42.656;23.312;2024-03-23T00:56:10;18.75;;;8.13;;
7169;SDS011;3626;42.656;23.312;2024-03-23T00:56:16;19.45;;;8.00;;
7169;SDS011;3626;42.656;23.312;2024-03-23T00:56:22;18.23;;;7.90;;
7169;SDS011;3626;42.656;23.312;2024-03-23T00:56:27;17.65;;;7.93;;
7169;SDS011;3626;42.656;23.312;2024-03-23T00:56:33;17.65;;;7.90;;
7169;SDS011;3626;42.656;23.312;2024-03-23T00:56:39;17.57;;;7.80;;
7169;SDS011;3626;42.656;23.312;2024-03-23T00:56:44;18.33;;;7.72;;
7169;SDS011;3626;42.656;23.312;2024-03-23T00:56:50;17.88;;;7.70;;
7169;SDS011;3626;42.656;23.312;2024-03-23T00:56:56;18.00;;;7.93;;
7169;SDS011;3626;42.656;23.312;2024-03-23T00:57:01;18.27;;;8.05;;
7169;SDS011;3626;42.656;23.312;2024-03-23T00:57:07;18.60;;;8.17;;
7169;SDS011;3626;42.656;23.312;2024-03-23T00:57:13;16.63;;;8.17;;
7169;SDS011;3626;42.656;23.312;2024-03-23T00:57:19;16.83;;;8.13;;
7169;SDS011;3626;42.656;23.312;2024-03-23T00:57:25;16.90;;;8.17;;
7169;SDS011;3626;42.656;23.312;2024-03-23T00:57:30;17.92;;;8.20;;
7169;SDS011;3626;42.656;23.312;2024-03-23T00:57:36;18.63;;;8.23;;
7169;SDS011;3626;42.656;23.312;2024-03-23T00:57:41;17.93;;;8.30;;
7169;SDS011;3626;42.656;23.312;2024-03-23T00:57:47;17.63;;;8.27;;
7169;SDS011;3626;42.656;23.312;2024-03-23T00:57:53;19.35;;;8.27;;
7169;SDS011;3626;42.656;23.312;2024-03-23T00:57:58;20.13;;;8.20;;
7169;SDS011;3626;42.656;23.312;2024-03-23T00:58:04;20.17;;;8.18;;
7169;SDS011;3626;42.656;23.312;2024-03-23T00:58:10;20.90;;;8.32;;
7169;SDS011;3626;42.656;23.312;2024-03-23T00:58:15;21.87;;;8.60;;
7169;SDS011;3626;42.656;23.312;2024-03-23T00:58:21;22.60;;;8.70;;
7169;SDS011;3626;42.656;23.312;2024-03-23T00:58:27;22.00;;;8.63;;
7169;SDS011;3626;42.656;23.312;2024-03-23T00:58:32;21.33;;;8.70;;
7169;SDS011;3626;42.656;23.312;2024-03-23T00:58:38;20.65;;;8.60;;
7169;SDS011;3626;42.656;23.312;2024-03-23T00:58:44;20.20;;;8.48;;
7169;SDS011;3626;42.656;23.312;2024-03-23T00:58:49;21.73;;;8.70;;
7169;SDS011;3626;42.656;23.312;2024-03-23T00:58:55;20.55;;;8.57;;
7169;SDS011;3626;42.656;23.312;2024-03-23T00:59:01;20.38;;;8.50;;
7169;SDS011;3626;42.656;23.312;2024-03-23T00:59:06;19.80;;;8.40;;
7169;SDS011;3626;42.656;23.312;2024-03-23T00:59:12;19.75;;;8.35;;
7169;SDS011;3626;42.656;23.312;2024-03-23T00:59:18;21.06;;;8.22;;
7169;SDS011;3626;42.656;23.312;2024-03-23T00:59:24;21.07;;;8.20;;
7169;SDS011;3626;42.656;23.312;2024-03-23T00:59:33;21.91;;;8.24;;
7169;SDS011;3626;42.656;23.312;2024-03-23T00:59:39;23.08;;;8.52;;
7169;SDS011;3626;42.656;23.312;2024-03-23T00:59:44;23.33;;;8.70;;
7169;SDS011;3626;42.656;23.312;2024-03-23T00:59:50;21.48;;;8.60;;
7169;SDS011;3626;42.656;23.312;2024-03-23T00:59:55;22.10;;;8.82;;
7169;SDS011;3626;42.656;23.312;2024-03-23T01:00:01;22.97;;;9.20;;
7169;SDS011;3626;42.656;23.312;2024-03-23T01:00:08;22.90;;;9.30;;
7169;SDS011;3626;42.656;23.312;2024-03-23T01:00:15;21.94;;;9.30;;
7169;SDS011;3626;42.656;23.312;2024-03-23T01:00:21;21.08;;;9.27;;
7169;SDS011;3626;42.656;23.312;2024-03-23T01:00:27;20.95;;;9.10;;
7169;SDS011;3626;42.656;23.312;2024-03-23T01:00:32;21.35;;;9.27;;
7169;SDS011;3626;42.656;23.312;2024-03-23T01:00:39;20.95;;;9.07;;
7169;SDS011;3626;42.656;23.312;2024-03-23T01:00:45;21.10;;;8.98;;
7169;SDS011;3626;42.656;23.312;2024-03-23T01:00:50;21.08;;;9.05;;
7169;SDS011;3626;42.656;23.312;2024-03-23T01:00:56;20.23;;;8.77;;
7169;SDS011;3626;42.656;23.312;2024-03-23T01:01:02;19.27;;;8.73;;
7169;SDS011;3626;42.656;23.312;2024-03-23T01:01:08;19.93;;;8.97;;
7169;SDS011;3626;42.656;23.312;2024-03-23T01:01:14;19.80;;;9.00;;
7169;SDS011;3626;42.656;23.312;2024-03-23T01:01:20;19.60;;;8.90;;
7169;SDS011;3626;42.656;23.312;2024-03-23T01:01:26;19.63;;;8.90;;
7169;SDS011;3626;42.656;23.312;2024-03-23T01:01:31;18.55;;;8.70;;
7169;SDS011;3626;42.656;23.312;2024-03-23T01:01:37;18.10;;;8.53;;
7169;SDS011;3626;42.656;23.312;2024-03-23T01:01:42;17.15;;;8.40;;
7169;SDS011;3626;42.656;23.312;2024-03-23T01:01:48;16.37;;;8.20;;
7169;SDS011;3626;42.656;23.312;2024-03-23T01:01:54;16.60;;;8.20;;
7169;SDS011;3626;42.656;23.312;2024-03-23T01:01:59;16.80;;;8.07;;
7169;SDS011;3626;42.656;23.312;2024-03-23T01:02:05;17.10;;;7.90;;
7169;SDS011;3626;42.656;23.312;2024-03-23T01:02:11;16.88;;;7.63;;
7169;SDS011;3626;42.656;23.312;2024-03-23T01:02:16;17.20;;;7.50;;
7169;SDS011;3626;42.656;23.312;2024-03-23T01:02:22;17.63;;;7.67;;
7169;SDS011;3626;42.656;23.312;2024-03-23T01:02:27;19.33;;;7.90;;
7169;SDS011;3626;42.656;23.312;2024-03-23T01:02:33;20.80;;;8.18;;
7169;SDS011;3626;42.656;23.312;2024-03-23T01:02:39;20.93;;;8.23;;
7169;SDS011;3626;42.656;23.312;2024-03-23T01:02:44;22.40;;;8.50;;
7169;SDS011;3626;42.656;23.312;2024-03-23T01:02:50;22.13;;;8.40;;
7169;SDS011;3626;42.656;23.312;2024-03-23T01:02:56;22.20;;;8.50;;
7169;SDS011;3626;42.656;23.312;2024-03-23T01:03:01;22.52;;;8.55;;
7169;SDS011;3626;42.656;23.312;2024-03-23T01:03:07;21.27;;;8.55;;
7169;SDS011;3626;42.656;23.312;2024-03-23T01:03:13;21.67;;;8.83;;
7169;SDS011;3626;42.656;23.312;2024-03-23T01:03:18;20.58;;;8.80;;
7169;SDS011;3626;42.656;23.312;2024-03-23T01:03:24;19.80;;;8.60;;
7169;SDS011;3626;42.656;23.312;2024-03-23T01:03:29;18.85;;;8.57;;
7169;SDS011;3626;42.656;23.312;2024-03-23T01:03:35;21.05;;;8.40;;
7169;SDS011;3626;42.656;23.312;2024-03-23T01:03:41;20.92;;;8.45;;
7169;SDS011;3626;42.656;23.312;2024-03-23T01:03:46;20.47;;;8.43;;
7169;SDS011;3626;42.656;23.312;2024-03-23T01:03:53;21.00;;;8.40;;
7169;SDS011;3626;42.656;23.312;2024-03-23T01:03:59;20.77;;;8.47;;
7169;SDS011;3626;42.656;23.312;2024-03-23T01:04:04;22.48;;;8.68;;
7169;SDS011;3626;42.656;23.312;2024-03-23T01:04:10;23.02;;;8.60;;
7169;SDS011;3626;42.656;23.312;2024-03-23T01:04:16;23.53;;;8.63;;
7169;SDS011;3626;42.656;23.312;2024-03-23T01:04:21;24.20;;;8.70;;
7169;SDS011;3626;42.656;23.312;2024-03-23T01:04:27;24.73;;;8.70;;
7169;SDS011;3626;42.656;23.312;2024-03-23T01:04:33;22.40;;;8.77;;
7169;SDS011;3626;42.656;23.312;2024-03-23T01:04:38;21.67;;;8.80;;
7169;SDS011;3626;42.656;23.312;2024-03-23T01:04:44;21.98;;;8.85;;
7169;SDS011;3626;42.656;23.312;2024-03-23T01:04:49;22.37;;;9.10;;
7169;SDS011;3626;42.656;23.312;2024-03-23T01:04:55;22.58;;;9.15;;
7169;SDS011;3626;42.656;23.312;2024-03-23T01:05:01;21.80;;;9.00;;
7169;SDS011;3626;42.656;23.312;2024-03-23T01:05:06;20.27;;;8.70;;
7169;SDS011;3626;42.656;23.312;2024-03-23T01:05:12;20.08;;;8.70;;
7169;SDS011;3626;42.656;23.312;2024-03-23T01:05:18;20.15;;;8.68;;
7169;SDS011;3626;42.656;23.312;2024-03-23T01:05:24;19.98;;;8.65;;
7169;SDS011;3626;42.656;23.312;2024-03-23T01:05:30;19.15;;;8.60;;
7169;SDS011;3626;42.656;23.312;2024-03-23T01:05:35;19.23;;;8.60;;
7169;SDS011;3626;42.656;23.312;2024-03-23T01:05:41;18.80;;;8.57;;
7169;SDS011;3626;42.656;23.312;2024-03-23T01:05:47;18.75;;;8.40;;
7169;SDS011;3626;42.656;23.312;2024-03-23T01:05:53;18.40;;;8.27;;
7169;SDS011;3626;42.656;23.312;2024-03-23T01:05:59;18.35;;;8.13;;
7169;SDS011;3626;42.656;23.312;2024-03-23T01:06:05;19.48;;;8.40;;
7169;SDS011;3626;42.656;23.312;2024-03-23T01:06:11;19.58;;;8.40;;
7169;SDS011;3626;42.656;23.312;2024-03-23T01:06:16;18.70;;;8.37;;
7169;SDS011;3626;42.656;23.312;2024-03-23T01:06:22;18.92;;;8.52;;
7169;SDS011;3626;42.656;23.312;2024-03-23T01:06:28;20.83;;;8.77;;
7169;SDS011;3626;42.656;23.312;2024-03-23T01:06:33;20.90;;;8.73;;
7169;SDS011;3626;42.656;23.312;2024-03-23T01:06:39;21.17;;;8.95;;
7169;SDS011;3626;42.656;23.312;2024-03-23T01:06:44;21.10;;;9.00;;
7169;SDS011;3626;42.656;23.312;2024-03-23T01:06:50;21.53;;;9.10;;
7169;SDS011;3626;42.656;23.312;2024-03-23T01:06:56;22.10;;;9.13;;
7169;SDS011;3626;42.656;23.312;2024-03-23T01:07:01;21.45;;;9.13;;
7169;SDS011;3626;42.656;23.312;2024-03-23T01:07:08;21.60;;;9.17;;
7169;SDS011;3626;42.656;23.312;2024-03-23T01:07:14;21.63;;;9.30;;
7169;SDS011;3626;42.656;23.312;2024-03-23T01:07:20;21.73;;;9.32;;
7169;SDS011;3626;42.656;23.312;2024-03-23T01:07:25;20.23;;;9.18;;
7169;SDS011;3626;42.656;23.312;2024-03-23T01:07:32;19.77;;;9.20;;
7169;SDS011;3626;42.656;23.312;2024-03-23T01:07:38;22.65;;;9.40;;
7169;SDS011;3626;42.656;23.312;2024-03-23T01:07:43;23.88;;;9.38;;
7169;SDS011;3626;42.656;23.312;2024-03-23T01:07:49;24.20;;;9.40;;
7169;SDS011;3626;42.656;23.312;2024-03-23T01:07:54;24.38;;;9.50;;
7169;SDS011;3626;42.656;23.312;2024-03-23T01:08:00;23.93;;;9.50;;
7169;SDS011;3626;42.656;23.312;2024-03-23T01:08:06;24.02;;;9.45;;
7169;SDS011;3626;42.656;23.312;2024-03-23T01:08:12;24.98;;;9.52;;
7169;SDS011;3626;42.656;23.312;2024-03-23T01:08:17;25.13;;;9.55;;
7169;SDS011;3626;42.656;23.312;2024-03-23T01:08:23;25.07;;;9.53;;
7169;SDS011;3626;42.656;23.312;2024-03-23T01:08:28;25.15;;;9.55;;
7169;SDS011;3626;42.656;23.312;2024-03-23T01:08:34;24.52;;;9.35;;
7169;SDS011;3626;42.656;23.312;2024-03-23T01:08:40;20.63;;;9.00;;
7169;SDS011;3626;42.656;23.312;2024-03-23T01:08:45;20.77;;;8.95;;
7169;SDS011;3626;42.656;23.312;2024-03-23T01:08:51;21.10;;;9.00;;
7169;SDS011;3626;42.656;23.312;2024-03-23T01:08:57;22.27;;;9.20;;
7169;SDS011;3626;42.656;23.312;2024-03-23T01:09:03;22.13;;;9.10;;
7169;SDS011;3626;42.656;23.312;2024-03-23T01:09:08;21.45;;;9.02;;
7169;SDS011;3626;42.656;23.312;2024-03-23T01:09:15;20.47;;;8.87;;
7169;SDS011;3626;42.656;23.312;2024-03-23T01:09:21;20.65;;;8.95;;
7169;SDS011;3626;42.656;23.312;2024-03-23T01:09:27;23.00;;;9.10;;
7169;SDS011;3626;42.656;23.312;2024-03-23T01:09:33;24.20;;;9.27;;
7169;SDS011;3626;42.656;23.312;2024-03-23T01:09:39;24.80;;;9.57;;
7169;SDS011;3626;42.656;23.312;2024-03-23T01:09:44;24.75;;;9.68;;
7169;SDS011;3626;42.656;23.312;2024-03-23T01:09:50;23.80;;;9.60;;
7169;SDS011;3626;42.656;23.312;2024-03-23T01:09:57;21.93;;;9.33;;
7169;SDS011;3626;42.656;23.312;2024-03-23T01:10:03;22.17;;;9.43;;
7169;SDS011;3626;42.656;23.312;2024-03-23T01:10:09;22.53;;;9.43;;
7169;SDS011;3626;42.656;23.312;2024-03-23T01:10:15;22.20;;;9.37;;
7169;SDS011;3626;42.656;23.312;2024-03-23T01:10:20;21.90;;;9.18;;
7169;SDS011;3626;42.656;23.312;2024-03-23T01:10:26;21.38;;;9.32;;
7169;SDS011;3626;42.656;23.312;2024-03-23T01:10:32;18.97;;;9.20;;
7169;SDS011;3626;42.656;23.312;2024-03-23T01:10:37;18.77;;;9.13;;
7169;SDS011;3626;42.656;23.312;2024-03-23T01:10:43;18.48;;;9.00;;
7169;SDS011;3626;42.656;23.312;2024-03-23T01:11:00;19.34;;;9.01;;
7169;SDS011;3626;42.656;23.312;2024-03-23T01:11:05;20.03;;;9.00;;
7169;SDS011;3626;42.656;23.312;2024-03-23T01:11:11;19.92;;;8.90;;
7169;SDS011;3626;42.656;23.312;2024-03-23T01:11:18;21.82;;;9.20;;
7169;SDS011;3626;42.656;23.312;2024-03-23T01:11:23;21.97;;;9.10;;
7169;SDS011;3626;42.656;23.312;2024-03-23T01:11:29;21.98;;;8.90;;
7169;SDS011;3626;42.656;23.312;2024-03-23T01:11:35;21.90;;;8.82;;
7169;SDS011;3626;42.656;23.312;2024-03-23T01:11:40;21.77;;;8.53;;
7169;SDS011;3626;42.656;23.312;2024-03-23T01:11:46;23.10;;;8.57;;
7169;SDS011;3626;42.656;23.312;2024-03-23T01:11:52;23.40;;;8.70;;
7169;SDS011;3626;42.656;23.312;2024-03-23T01:11:57;22.13;;;8.70;;
7169;SDS011;3626;42.656;23.312;2024-03-23T01:12:03;23.15;;;8.70;;
7169;SDS011;3626;42.656;23.312;2024-03-23T01:12:09;23.93;;;8.70;;
7169;SDS011;3626;42.656;23.312;2024-03-23T01:12:15;24.02;;;8.73;;
7169;SDS011;3626;42.656;23.312;2024-03-23T01:12:20;23.03;;;8.47;;
7169;SDS011;3626;42.656;23.312;2024-03-23T01:12:26;23.85;;;8.48;;
7169;SDS011;3626;42.656;23.312;2024-03-23T01:12:32;23.95;;;8.60;;
7169;SDS011;3626;42.656;23.312;2024-03-23T01:12:38;24.50;;;8.75;;
7169;SDS011;3626;42.656;23.312;2024-03-23T01:12:43;24.58;;;8.93;;
7169;SDS011;3626;42.656;23.312;2024-03-23T01:12:49;25.03;;;8.97;;
7169;SDS011;3626;42.656;23.312;2024-03-23T01:12:55;24.88;;;8.88;;
7169;SDS011;3626;42.656;23.312;2024-03-23T01:13:00;23.93;;;8.67;;
7169;SDS011;3626;42.656;23.312;2024-03-23T01:13:06;23.13;;;8.63;;
7169;SDS011;3626;42.656;23.312;2024-03-23T01:13:12;22.08;;;8.60;;
7169;SDS011;3626;42.656;23.312;2024-03-23T01:13:17;22.50;;;8.60;;
7169;SDS011;3626;42.656;23.312;2024-03-23T01:13:26;22.43;;;8.97;;
7169;SDS011;3626;42.656;23.312;2024-03-23T01:13:32;22.77;;;8.93;;
7169;SDS011;3626;42.656;23.312;2024-03-23T01:13:38;22.58;;;9.07;;
7169;SDS011;3626;42.656;23.312;2024-03-23T01:13:44;21.20;;;8.90;;
7169;SDS011;3626;42.656;23.312;2024-03-23T01:13:49;20.07;;;8.63;;
7169;SDS011;3626;42.656;23.312;2024-03-23T01:13:55;20.30;;;8.80;;
7169;SDS011;3626;42.656;23.312;2024-03-23T01:14:01;20.07;;;8.77;;
7169;SDS011;3626;42.656;23.312;2024-03-23T01:14:07;21.58;;;9.02;;
7169;SDS011;3626;42.656;23.312;2024-03-23T01:14:13;22.43;;;9.23;;
7169;SDS011;3626;42.656;23.312;2024-03-23T01:14:20;21.17;;;9.27;;
7169;SDS011;3626;42.656;23.312;2024-03-23T01:14:25;21.35;;;9.32;;
7169;SDS011;3626;42.656;23.312;2024-03-23T01:14:31;21.33;;;9.30;;
7169;SDS011;3626;42.656;23.312;2024-03-23T01:14:37;21.13;;;9.20;;
7169;SDS011;3626;42.656;23.312;2024-03-23T01:14:43;20.93;;;9.10;;
7169;SDS011;3626;42.656;23.312;2024-03-23T01:14:49;21.23;;;9.18;;
7169;SDS011;3626;42.656;23.312;2024-03-23T01:14:54;21.30;;;9.20;;
7169;SDS011;3626;42.656;23.312;2024-03-23T01:15:00;21.10;;;9.20;;
7169;SDS011;3626;42.656;23.312;2024-03-23T01:15:06;19.70;;;8.95;;
7169;SDS011;3626;42.656;23.312;2024-03-23T01:15:12;18.80;;;8.90;;
7169;SDS011;3626;42.656;23.312;2024-03-23T01:15:17;18.70;;;8.95;;
7169;SDS011;3626;42.656;23.312;2024-03-23T01:15:23;18.55;;;8.77;;
7169;SDS011;3626;42.656;23.312;2024-03-23T01:15:29;17.67;;;8.70;;
7169;SDS011;3626;42.656;23.312;2024-03-23T01:15:34;17.90;;;8.82;;
7169;SDS011;3626;42.656;23.312;2024-03-23T01:15:40;18.07;;;9.03;;
7169;SDS011;3626;42.656;23.312;2024-03-23T01:15:47;19.58;;;9.52;;
7169;SDS011;3626;42.656;23.312;2024-03-23T01:15:54;21.72;;;9.77;;
7169;SDS011;3626;42.656;23.312;2024-03-23T01:16:01;23.04;;;10.04;;
7169;SDS011;3626;42.656;23.312;2024-03-23T01:16:06;22.95;;;10.07;;
7169;SDS011;3626;42.656;23.312;2024-03-23T01:16:12;23.05;;;9.88;;
7169;SDS011;3626;42.656;23.312;2024-03-23T01:16:18;23.87;;;9.70;;
7169;SDS011;3626;42.656;23.312;2024-03-23T01:16:23;24.55;;;9.95;;
7169;SDS011;3626;42.656;23.312;2024-03-23T01:16:29;24.60;;;10.00;;
7169;SDS011;3626;42.656;23.312;2024-03-23T01:16:35;24.03;;;9.90;;
7169;SDS011;3626;42.656;23.312;2024-03-23T01:16:40;24.20;;;9.75;;
7169;SDS011;3626;42.656;23.312;2024-03-23T01:16:46;22.93;;;9.43;;
7169;SDS011;3626;42.656;23.312;2024-03-23T01:16:51;21.05;;;9.30;;
7169;SDS011;3626;42.656;23.312;2024-03-23T01:16:57;19.98;;;9.23;;
7169;SDS011;3626;42.656;23.312;2024-03-23T01:17:03;19.93;;;9.00;;
7169;SDS011;3626;42.656;23.312;2024-03-23T01:17:09;20.94;;;9.42;;
7169;SDS011;3626;42.656;23.312;2024-03-23T01:17:15;20.48;;;9.45;;
7169;SDS011;3626;42.656;23.312;2024-03-23T01:17:21;20.77;;;9.38;;
7169;SDS011;3626;42.656;23.312;2024-03-23T01:17:26;20.37;;;9.30;;
7169;SDS011;3626;42.656;23.312;2024-03-23T01:17:32;20.85;;;9.25;;
7169;SDS011;3626;42.656;23.312;2024-03-23T01:17:38;21.40;;;9.43;;
7169;SDS011;3626;42.656;23.312;2024-03-23T01:17:43;21.73;;;9.50;;
7169;SDS011;3626;42.656;23.312;2024-03-23T01:17:49;22.08;;;9.48;;
7169;SDS011;3626;42.656;23.312;2024-03-23T01:17:55;22.43;;;9.43;;
7169;SDS011;3626;42.656;23.312;2024-03-23T01:18:00;23.10;;;9.82;;
7169;SDS011;3626;42.656;23.312;2024-03-23T01:18:06;22.70;;;9.85;;
7169;SDS011;3626;42.656;23.312;2024-03-23T01:18:11;24.67;;;9.97;;
7169;SDS011;3626;42.656;23.312;2024-03-23T01:18:17;25.10;;;10.10;;
7169;SDS011;3626;42.656;23.312;2024-03-23T01:18:23;24.60;;;10.10;;
7169;SDS011;3626;42.656;23.312;2024-03-23T01:18:31;24.45;;;10.05;;
7169;SDS011;3626;42.656;23.312;2024-03-23T01:18:38;24.84;;;10.20;;
7169;SDS011;3626;42.656;23.312;2024-03-23T01:18:43;24.97;;;10.40;;
7169;SDS011;3626;42.656;23.312;2024-03-23T01:18:49;25.15;;;10.65;;
7169;SDS011;3626;42.656;23.312;2024-03-23T01:18:54;25.03;;;10.73;;
7169;SDS011;3626;42.656;23.312;2024-03-23T01:19:00;25.02;;;10.70;;
7169;SDS011;3626;42.656;23.312;2024-03-23T01:19:06;25.33;;;10.77;;
7169;SDS011;3626;42.656;23.312;2024-03-23T01:19:11;24.38;;;10.80;;
7169;SDS011;3626;42.656;23.312;2024-03-23T01:19:17;24.37;;;10.80;;
7169;SDS011;3626;42.656;23.312;2024-03-23T01:19:23;25.27;;;11.10;;
7169;SDS011;3626;42.656;23.312;2024-03-23T01:19:28;25.57;;;11.20;;
7169;SDS011;3626;42.656;23.312;2024-03-23T01:19:34;24.83;;;10.93;;
7169;SDS011;3626;42.656;23.312;2024-03-23T01:19:40;23.70;;;10.70;;
7169;SDS011;3626;42.656;23.312;2024-03-23T01:19:46;24.30;;;10.67;;
7169;SDS011;3626;42.656;23.312;2024-03-23T01:19:52;24.58;;;10.80;;
7169;SDS011;3626;42.656;23.312;2024-03-23T01:19:57;25.23;;;10.80;;
7169;SDS011;3626;42.656;23.312;2024-03-23T01:20:03;26.13;;;10.80;;
7169;SDS011;3626;42.656;23.312;2024-03-23T01:20:11;25.95;;;10.75;;
7169;SDS011;3626;42.656;23.312;2024-03-23T01:20:17;24.40;;;10.60;;
7169;SDS011;3626;42.656;23.312;2024-03-23T01:20:22;23.30;;;10.35;;
7169;SDS011;3626;42.656;23.312;2024-03-23T01:20:28;23.07;;;10.27;;
7169;SDS011;3626;42.656;23.312;2024-03-23T01:20:34;23.10;;;10.32;;
7169;SDS011;3626;42.656;23.312;2024-03-23T01:20:40;23.75;;;10.55;;
7169;SDS011;3626;42.656;23.312;2024-03-23T01:20:45;22.80;;;10.40;;
7169;SDS011;3626;42.656;23.312;2024-03-23T01:20:51;22.32;;;10.06;;
7169;SDS011;3626;42.656;23.312;2024-03-23T01:20:58;22.05;;;10.15;;
7169;SDS011;3626;42.656;23.312;2024-03-23T01:21:04;20.15;;;10.02;;
7169;SDS011;3626;42.656;23.312;2024-03-23T01:21:09;19.65;;;9.82;;
7169;SDS011;3626;42.656;23.312;2024-03-23T01:21:15;20.13;;;9.77;;
7169;SDS011;3626;42.656;23.312;2024-03-23T01:21:21;21.63;;;9.90;;
7169;SDS011;3626;42.656;23.312;2024-03-23T01:21:26;21.67;;;9.82;;
7169;SDS011;3626;42.656;23.312;2024-03-23T01:21:32;22.73;;;10.10;;
7169;SDS011;3626;42.656;23.312;2024-03-23T01:21:37;22.45;;;10.00;;
7169;SDS011;3626;42.656;23.312;2024-03-23T01:21:43;22.53;;;10.03;;
7169;SDS011;3626;42.656;23.312;2024-03-23T01:21:49;23.20;;;10.23;;
7169;SDS011;3626;42.656;23.312;2024-03-23T01:21:54;22.67;;;10.10;;
7169;SDS011;3626;42.656;23.312;2024-03-23T01:22:00;23.27;;;10.00;;
7169;SDS011;3626;42.656;23.312;2024-03-23T01:22:05;23.63;;;10.05;;
7169;SDS011;3626;42.656;23.312;2024-03-23T01:22:12;23.50;;;10.15;;
7169;SDS011;3626;42.656;23.312;2024-03-23T01:22:18;22.87;;;10.47;;
7169;SDS011;3626;42.656;23.312;2024-03-23T01:22:24;22.57;;;10.60;;
7169;SDS011;3626;42.656;23.312;2024-03-23T01:22:29;23.58;;;10.60;;
7169;SDS011;3626;42.656;23.312;2024-03-23T01:22:35;24.27;;;10.80;;
7169;SDS011;3626;42.656;23.312;2024-03-23T01:22:41;24.90;;;10.90;;
7169;SDS011;3626;42.656;23.312;2024-03-23T01:22:47;24.60;;;10.70;;
7169;SDS011;3626;42.656;23.312;2024-03-23T01:22:52;24.85;;;10.65;;
7169;SDS011;3626;42.656;23.312;2024-03-23T01:22:58;24.30;;;10.63;;
7169;SDS011;3626;42.656;23.312;2024-03-23T01:23:03;25.85;;;10.70;;
7169;SDS011;3626;42.656;23.312;2024-03-23T01:23:09;25.92;;;10.75;;
7169;SDS011;3626;42.656;23.312;2024-03-23T01:23:15;26.63;;;10.70;;
7169;SDS011;3626;42.656;23.312;2024-03-23T01:23:20;26.17;;;10.55;;
7169;SDS011;3626;42.656;23.312;2024-03-23T01:23:26;25.60;;;10.52;;
7169;SDS011;3626;42.656;23.312;2024-03-23T01:23:32;23.53;;;10.20;;
7169;SDS011;3626;42.656;23.312;2024-03-23T01:23:37;22.73;;;9.93;;
7169;SDS011;3626;42.656;23.312;2024-03-23T01:23:43;23.27;;;9.80;;
7169;SDS011;3626;42.656;23.312;2024-03-23T01:23:49;23.87;;;9.73;;
7169;SDS011;3626;42.656;23.312;2024-03-23T01:23:54;24.80;;;10.02;;
7169;SDS011;3626;42.656;23.312;2024-03-23T01:24:00;23.65;;;10.07;;
7169;SDS011;3626;42.656;23.312;2024-03-23T01:24:06;23.83;;;10.10;;
7169;SDS011;3626;42.656;23.312;2024-03-23T01:24:11;24.48;;;10.02;;
7169;SDS011;3626;42.656;23.312;2024-03-23T01:24:18;24.27;;;9.83;;
7169;SDS011;3626;42.656;23.312;2024-03-23T01:24:24;24.80;;;10.00;;
7169;SDS011;3626;42.656;23.312;2024-03-23T01:24:29;25.98;;;10.13;;
7169;SDS011;3626;42.656;23.312;2024-03-23T01:24:35;26.88;;;10.38;;
7169;SDS011;3626;42.656;23.312;2024-03-23T01:24:41;26.10;;;10.37;;
7169;SDS011;3626;42.656;23.312;2024-03-23T01:24:46;25.13;;;10.48;;
7169;SDS011;3626;42.656;23.312;2024-03-23T01:24:52;25.00;;;10.30;;
7169;SDS011;3626;42.656;23.312;2024-03-23T01:24:57;24.77;;;10.20;;
7169;SDS011;3626;42.656;23.312;2024-03-23T01:25:03;24.35;;;10.00;;
7169;SDS011;3626;42.656;23.312;2024-03-23T01:25:09;23.55;;;9.82;;
7169;SDS011;3626;42.656;23.312;2024-03-23T01:25:15;22.90;;;9.63;;
7169;SDS011;3626;42.656;23.312;2024-03-23T01:25:21;22.85;;;9.50;;
7169;SDS011;3626;42.656;23.312;2024-03-23T01:25:26;22.87;;;9.27;;
7169;SDS011;3626;42.656;23.312;2024-03-23T01:25:32;22.30;;;9.00;;
7169;SDS011;3626;42.656;23.312;2024-03-23T01:25:37;22.27;;;8.80;;
7169;SDS011;3626;42.656;23.312;2024-03-23T01:25:43;22.83;;;8.77;;
7169;SDS011;3626;42.656;23.312;2024-03-23T01:25:52;22.15;;;8.70;;
7169;SDS011;3626;42.656;23.312;2024-03-23T01:25:58;22.10;;;8.50;;
7169;SDS011;3626;42.656;23.312;2024-03-23T01:26:04;21.67;;;8.50;;
7169;SDS011;3626;42.656;23.312;2024-03-23T01:26:09;22.83;;;8.73;;
7169;SDS011;3626;42.656;23.312;2024-03-23T01:26:15;23.48;;;8.90;;
7169;SDS011;3626;42.656;23.312;2024-03-23T01:26:21;23.25;;;8.88;;
7169;SDS011;3626;42.656;23.312;2024-03-23T01:26:27;22.73;;;8.87;;
7169;SDS011;3626;42.656;23.312;2024-03-23T01:26:33;22.73;;;8.93;;
7169;SDS011;3626;42.656;23.312;2024-03-23T01:26:38;22.37;;;8.93;;
7169;SDS011;3626;42.656;23.312;2024-03-23T01:26:44;22.38;;;8.75;;
7169;SDS011;3626;42.656;23.312;2024-03-23T01:26:50;21.88;;;8.55;;
7169;SDS011;3626;42.656;23.312;2024-03-23T01:26:56;21.45;;;8.50;;
7169;SDS011;3626;42.656;23.312;2024-03-23T01:27:01;21.13;;;8.30;;
7169;SDS011;3626;42.656;23.312;2024-03-23T01:27:08;20.77;;;8.15;;
7169;SDS011;3626;42.656;23.312;2024-03-23T01:27:14;18.73;;;7.90;;
7169;SDS011;3626;42.656;23.312;2024-03-23T01:27:19;18.50;;;7.80;;
7169;SDS011;3626;42.656;23.312;2024-03-23T01:27:25;18.70;;;7.90;;
7169;SDS011;3626;42.656;23.312;2024-03-23T01:27:30;19.00;;;8.00;;
7169;SDS011;3626;42.656;23.312;2024-03-23T01:27:36;19.27;;;8.03;;
7169;SDS011;3626;42.656;23.312;2024-03-23T01:27:42;20.02;;;8.20;;
7169;SDS011;3626;42.656;23.312;2024-03-23T01:27:47;20.33;;;8.45;;
7169;SDS011;3626;42.656;23.312;2024-03-23T01:27:54;20.52;;;8.73;;
7169;SDS011;3626;42.656;23.312;2024-03-23T01:28:00;21.05;;;8.95;;
7169;SDS011;3626;42.656;23.312;2024-03-23T01:28:05;21.38;;;9.20;;
7169;SDS011;3626;42.656;23.312;2024-03-23T01:28:11;22.63;;;9.48;;
7169;SDS011;3626;42.656;23.312;2024-03-23T01:28:17;23.27;;;9.70;;
7169;SDS011;3626;42.656;23.312;2024-03-23T01:28:22;23.58;;;9.68;;